createdAt,value
2022-09-15T00:00:51.263Z,8.50
2022-09-15T00:03:20.365Z,8.38
2022-09-15T00:05:48.635Z,8.20
2022-09-15T00:08:17.591Z,8.98
2022-09-15T00:10:49.171Z,9.07
2022-09-15T00:13:17.368Z,5.93
2022-09-15T00:15:45.125Z,6.47
2022-09-15T00:18:13.013Z,5.82
2022-09-15T00:20:42.694Z,7.80
2022-09-15T00:23:11.049Z,8.35
2022-09-15T00:25:45.594Z,5.50
2022-09-15T00:28:13.913Z,6.13
2022-09-15T00:30:43.159Z,10.07
2022-09-15T00:33:11.005Z,7.72
2022-09-15T00:35:39.884Z,8.38
2022-09-15T00:38:08.719Z,7.22
2022-09-15T00:40:46.427Z,9.65
2022-09-15T00:43:15.543Z,9.75
2022-09-15T00:45:43.278Z,13.25
2022-09-15T00:48:14.519Z,9.32
2022-09-15T00:50:45.870Z,6.30
2022-09-15T00:53:15.164Z,9.38
2022-09-15T00:55:47.442Z,8.60
2022-09-15T00:58:31.123Z,9.27
2022-09-15T01:01:01.387Z,5.43
2022-09-15T01:03:31.483Z,8.23
2022-09-15T01:06:03.105Z,7.65
2022-09-15T01:08:35.214Z,6.90
2022-09-15T01:11:03.022Z,6.85
2022-09-15T01:13:31.990Z,11.93
2022-09-15T01:16:11.032Z,11.60
2022-09-15T01:18:48.002Z,7.97
2022-09-15T01:21:29.835Z,9.50
2022-09-15T01:24:41.202Z,8.75
2022-09-15T01:27:42.874Z,10.20
2022-09-15T01:30:15.439Z,6.72
2022-09-15T01:33:06.175Z,6.30
2022-09-15T01:35:53.738Z,8.43
2022-09-15T01:38:33.396Z,8.18
2022-09-15T01:41:06.133Z,7.35
2022-09-15T01:43:40.267Z,7.40
2022-09-15T01:46:10.855Z,6.63
2022-09-15T01:48:40.606Z,5.72
2022-09-15T01:51:09.334Z,7.38
2022-09-15T01:53:37.158Z,9.80
2022-09-15T01:56:08.203Z,12.88
2022-09-15T01:58:37.671Z,5.72
2022-09-15T02:01:08.502Z,9.10
2022-09-15T02:03:47.325Z,9.48
2022-09-15T02:06:22.106Z,7.95
2022-09-15T02:08:57.361Z,11.65
2022-09-15T02:11:28.184Z,12.00
2022-09-15T02:14:03.576Z,6.30
2022-09-15T02:16:34.945Z,12.05
2022-09-15T02:19:21.522Z,9.10
2022-09-15T02:21:55.895Z,12.23
2022-09-15T02:24:27.912Z,13.40
2022-09-15T02:26:56.203Z,9.05
2022-09-15T02:29:27.823Z,7.07
2022-09-15T02:32:03.744Z,7.43
2022-09-15T02:34:38.308Z,7.95
2022-09-15T02:37:06.764Z,10.00
2022-09-15T02:39:37.872Z,10.05
2022-09-15T02:42:05.883Z,11.40
2022-09-15T02:44:33.653Z,13.23
2022-09-15T02:47:02.616Z,9.40
2022-09-15T02:49:30.191Z,11.60
2022-09-15T02:51:59.170Z,7.43
2022-09-15T02:54:26.784Z,9.88
2022-09-15T02:56:54.373Z,10.02
2022-09-15T02:59:22.270Z,12.13
2022-09-15T03:01:49.974Z,11.00
2022-09-15T03:04:17.586Z,7.05
2022-09-15T03:06:45.335Z,9.48
2022-09-15T03:09:14.886Z,9.57
2022-09-15T03:11:42.536Z,10.30
2022-09-15T03:14:10.495Z,10.05
2022-09-15T03:16:38.196Z,12.13
2022-09-15T03:19:06.238Z,8.77
2022-09-15T03:21:33.873Z,13.85
2022-09-15T03:24:01.581Z,12.43
2022-09-15T03:26:31.050Z,10.65
2022-09-15T03:28:58.718Z,13.48
2022-09-15T03:31:26.349Z,13.07
2022-09-15T03:33:56.048Z,14.40
2022-09-15T03:36:23.779Z,15.25
2022-09-15T03:38:51.481Z,13.40
2022-09-15T03:41:19.225Z,13.77
2022-09-15T03:43:48.155Z,12.32
2022-09-15T03:46:15.841Z,10.45
2022-09-15T03:48:43.430Z,9.88
2022-09-15T03:51:12.500Z,11.98
2022-09-15T03:53:41.976Z,16.80
2022-09-15T03:56:11.751Z,14.32
2022-09-15T03:58:39.354Z,11.32
2022-09-15T04:01:09.177Z,9.77
2022-09-15T04:03:43.217Z,12.63
2022-09-15T04:06:13.148Z,10.68
2022-09-15T04:08:40.871Z,10.68
2022-09-15T04:11:10.747Z,9.75
2022-09-15T04:13:39.858Z,10.80
2022-09-15T04:16:11.238Z,11.60
2022-09-15T04:18:39.105Z,9.23
2022-09-15T04:21:09.694Z,11.93
2022-09-15T04:23:37.253Z,11.57
2022-09-15T04:26:07.663Z,18.13
2022-09-15T04:28:38.043Z,9.32
2022-09-15T04:31:08.673Z,10.55
2022-09-15T04:33:37.031Z,15.60
2022-09-15T04:36:08.015Z,9.07
2022-09-15T04:38:36.371Z,11.25
2022-09-15T04:41:05.123Z,9.05
2022-09-15T04:43:33.230Z,10.05
2022-09-15T04:46:00.860Z,11.63
2022-09-15T04:48:29.890Z,10.05
2022-09-15T04:51:01.998Z,9.10
2022-09-15T04:53:29.933Z,13.35
2022-09-15T04:56:04.073Z,12.07
2022-09-15T04:58:31.776Z,14.13
2022-09-15T05:00:59.366Z,10.20
2022-09-15T05:03:26.998Z,10.77
2022-09-15T05:05:55.880Z,11.95
2022-09-15T05:08:23.548Z,9.77
2022-09-15T05:10:51.177Z,10.68
2022-09-15T05:13:18.877Z,7.63
2022-09-15T05:15:46.778Z,10.95
2022-09-15T05:18:14.393Z,7.13
2022-09-15T05:20:42.113Z,7.25
2022-09-15T05:23:11.665Z,10.02
2022-09-15T05:25:39.245Z,10.48
2022-09-15T05:28:07.683Z,8.43
2022-09-15T05:30:39.684Z,9.63
2022-09-15T05:33:09.078Z,8.05
2022-09-15T05:35:36.719Z,7.63
2022-09-15T05:38:04.357Z,9.93
2022-09-15T05:40:33.908Z,8.38
2022-09-15T05:43:01.933Z,8.10
2022-09-15T05:45:29.473Z,15.00
2022-09-15T05:47:57.101Z,7.93
2022-09-15T05:50:24.918Z,10.00
2022-09-15T05:52:52.903Z,10.73
2022-09-15T05:55:20.529Z,8.38
2022-09-15T05:57:49.557Z,10.80
2022-09-15T06:00:18.969Z,8.82
2022-09-15T06:02:46.954Z,6.90
2022-09-15T06:05:14.665Z,6.60
2022-09-15T06:07:42.165Z,4.88
2022-09-15T06:10:10.987Z,7.47
2022-09-15T06:12:38.816Z,5.78
2022-09-15T06:15:08.844Z,6.35
2022-09-15T06:17:36.374Z,6.40
2022-09-15T06:20:06.741Z,5.63
2022-09-15T06:22:35.059Z,8.25
2022-09-15T06:25:02.764Z,7.72
2022-09-15T06:27:30.276Z,7.78
2022-09-15T06:29:57.912Z,8.88
2022-09-15T06:32:27.102Z,8.30
2022-09-15T06:34:54.779Z,8.02
2022-09-15T06:37:22.295Z,7.57
2022-09-15T06:39:49.995Z,8.63
2022-09-15T06:42:17.862Z,8.57
2022-09-15T06:44:45.480Z,6.35
2022-09-15T06:47:16.004Z,8.40
2022-09-15T06:49:44.966Z,12.30
2022-09-15T06:52:12.768Z,4.90
2022-09-15T06:54:40.370Z,6.03
2022-09-15T06:57:08.067Z,6.63
2022-09-15T06:59:35.749Z,4.93
2022-09-15T07:02:05.287Z,7.00
2022-09-15T07:04:36.842Z,6.72
2022-09-15T07:07:06.474Z,7.35
2022-09-15T07:09:34.080Z,4.80
2022-09-15T07:12:02.026Z,6.22
2022-09-15T07:14:30.217Z,7.75
2022-09-15T07:16:57.889Z,10.93
2022-09-15T07:19:25.432Z,12.07
2022-09-15T07:21:53.853Z,6.93
2022-09-15T07:24:22.876Z,5.78
2022-09-15T07:26:50.558Z,6.43
2022-09-15T07:29:18.439Z,6.80
2022-09-15T07:31:46.100Z,7.55
2022-09-15T07:34:13.776Z,5.45
2022-09-15T07:36:41.326Z,4.82
2022-09-15T07:39:08.867Z,6.13
2022-09-15T07:41:37.829Z,6.05
2022-09-15T07:44:08.035Z,6.47
2022-09-15T07:46:35.577Z,5.57
2022-09-15T07:49:03.843Z,5.70
2022-09-15T07:51:31.554Z,5.18
2022-09-15T07:53:59.118Z,4.07
2022-09-15T07:56:26.793Z,6.72
2022-09-15T07:58:55.798Z,4.85
2022-09-15T08:01:23.479Z,8.57
2022-09-15T08:03:54.584Z,8.07
2022-09-15T08:06:24.397Z,4.90
2022-09-15T08:08:57.713Z,4.28
2022-09-15T08:11:27.523Z,5.85
2022-09-15T08:13:56.515Z,6.43
2022-09-15T08:16:25.457Z,6.20
2022-09-15T08:18:55.941Z,6.13
2022-09-15T08:21:23.835Z,5.05
2022-09-15T08:23:52.489Z,4.90
2022-09-15T08:26:20.311Z,5.35
2022-09-15T08:28:48.226Z,9.65
2022-09-15T08:31:18.019Z,5.22
2022-09-15T08:33:48.935Z,5.18
2022-09-15T08:36:16.550Z,6.10
2022-09-15T08:38:45.975Z,6.13
2022-09-15T08:41:18.285Z,4.35
2022-09-15T08:43:50.819Z,3.85
2022-09-15T08:46:25.300Z,3.50
2022-09-15T08:49:02.905Z,4.70
2022-09-15T08:51:36.956Z,4.70
2022-09-15T08:54:12.049Z,7.18
2022-09-15T08:56:42.477Z,3.75
2022-09-15T08:59:14.165Z,4.95
2022-09-15T09:02:06.947Z,5.40
2022-09-15T09:05:03.729Z,4.57
2022-09-15T09:07:49.197Z,6.00
2022-09-15T09:10:20.972Z,5.47
2022-09-15T09:13:04.505Z,6.10
2022-09-15T09:15:48.556Z,3.17
2022-09-15T09:18:49.344Z,4.10
2022-09-15T09:21:24.512Z,5.03
2022-09-15T09:23:59.562Z,5.38
2022-09-15T09:26:30.769Z,2.92
2022-09-15T09:29:00.870Z,5.50
2022-09-15T09:31:29.623Z,5.45
2022-09-15T09:34:07.903Z,5.70
2022-09-15T09:36:35.476Z,4.47
2022-09-15T09:39:03.766Z,3.08
2022-09-15T09:41:36.518Z,4.95
2022-09-15T09:44:07.649Z,6.82
2022-09-15T09:46:35.257Z,3.70
2022-09-15T09:49:12.096Z,7.90
2022-09-15T09:51:50.937Z,4.78
2022-09-15T09:54:20.678Z,2.83
2022-09-15T09:56:49.616Z,3.58
2022-09-15T09:59:41.573Z,10.23
2022-09-15T10:02:17.943Z,8.65
2022-09-15T10:04:49.111Z,6.45
2022-09-15T10:07:20.071Z,6.22
2022-09-15T10:09:54.188Z,8.60
2022-09-15T10:12:26.147Z,4.13
2022-09-15T10:14:56.691Z,4.00
2022-09-15T10:17:27.122Z,6.03
2022-09-15T10:19:58.177Z,5.38
2022-09-15T10:22:31.159Z,4.43
2022-09-15T10:25:00.705Z,4.72
2022-09-15T10:27:32.001Z,3.55
2022-09-15T10:30:18.424Z,3.28
2022-09-15T10:32:46.071Z,4.00
2022-09-15T10:35:18.599Z,4.65
2022-09-15T10:38:04.356Z,8.88
2022-09-15T10:40:43.994Z,4.05
2022-09-15T10:43:25.246Z,5.10
2022-09-15T10:46:02.720Z,3.95
2022-09-15T10:48:44.233Z,4.40
2022-09-15T10:51:37.981Z,4.07
2022-09-15T10:54:19.427Z,5.65
2022-09-15T10:56:50.006Z,4.53
2022-09-15T10:59:43.150Z,4.82
2022-09-15T11:02:56.451Z,6.93
2022-09-15T11:05:33.183Z,3.50
2022-09-15T11:08:22.837Z,5.72
2022-09-15T11:10:59.666Z,4.70
2022-09-15T11:13:39.595Z,7.72
2022-09-15T11:16:14.541Z,5.47
2022-09-15T11:18:59.965Z,4.20
2022-09-15T11:21:33.634Z,4.70
2022-09-15T11:24:24.067Z,2.85
2022-09-15T11:26:55.544Z,3.83
2022-09-15T11:29:27.998Z,7.25
2022-09-15T11:34:34.731Z,7.32
2022-09-15T11:37:09.147Z,4.80
2022-09-15T11:39:42.617Z,5.47
2022-09-15T11:42:16.143Z,7.85
2022-09-15T11:44:47.096Z,8.10
2022-09-15T11:47:23.331Z,18.48
2022-09-15T11:49:57.099Z,10.13
2022-09-15T11:52:44.043Z,12.13
2022-09-15T11:55:23.996Z,6.90
2022-09-15T11:57:58.015Z,8.32
2022-09-15T12:00:26.062Z,6.78
2022-09-15T12:03:01.247Z,5.45
2022-09-15T12:05:34.311Z,10.02
2022-09-15T12:08:07.753Z,12.20
2022-09-15T12:10:41.349Z,4.28
2022-09-15T12:13:16.312Z,2.28
2022-09-15T12:15:45.240Z,2.80
2022-09-15T12:18:37.790Z,3.28
2022-09-15T12:21:15.769Z,2.35
2022-09-15T12:23:48.719Z,3.92
2022-09-15T12:26:20.174Z,5.35
2022-09-15T12:29:02.003Z,1.85
2022-09-15T12:31:40.068Z,3.47
2022-09-15T12:34:36.407Z,4.30
2022-09-15T12:37:14.614Z,3.28
2022-09-15T12:39:43.187Z,4.38
2022-09-15T12:42:20.351Z,5.53
2022-09-15T12:44:52.910Z,1.75
2022-09-15T12:47:29.406Z,2.33
2022-09-15T12:50:03.247Z,3.08
2022-09-15T12:52:31.217Z,3.50
2022-09-15T12:55:03.467Z,2.58
2022-09-15T12:57:36.085Z,2.80
2022-09-15T13:00:33.561Z,5.45
2022-09-15T13:03:04.869Z,5.22
2022-09-15T13:06:10.347Z,6.85
2022-09-15T13:08:53.073Z,3.28
2022-09-15T13:11:25.862Z,3.33
2022-09-15T13:14:07.728Z,3.10
2022-09-15T13:16:46.108Z,4.68
2022-09-15T13:19:17.618Z,4.25
2022-09-15T13:21:54.522Z,3.42
2022-09-15T13:24:38.839Z,8.40
2022-09-15T13:27:08.246Z,3.00
2022-09-15T13:29:46.614Z,2.80
2022-09-15T13:32:24.255Z,5.80
2022-09-15T13:35:29.283Z,6.80
2022-09-15T13:38:44.330Z,3.53
2022-09-15T13:41:33.330Z,2.33
2022-09-15T13:44:23.299Z,1.50
2022-09-15T13:47:10.748Z,4.60
2022-09-15T13:49:49.779Z,1.60
2022-09-15T13:52:34.082Z,2.90
2022-09-15T13:55:19.440Z,3.80
2022-09-15T14:00:46.778Z,3.53
2022-09-15T14:03:20.071Z,4.65
2022-09-15T14:05:48.016Z,4.18
2022-09-15T14:08:19.598Z,5.72
2022-09-15T14:10:51.433Z,3.28
2022-09-15T14:13:22.430Z,6.30
2022-09-15T14:16:01.490Z,3.03
2022-09-15T14:18:31.339Z,4.20
2022-09-15T14:21:01.669Z,2.00
2022-09-15T14:23:30.213Z,1.42
2022-09-15T14:26:00.151Z,3.08
2022-09-15T14:28:35.606Z,2.78
2022-09-15T14:31:03.496Z,4.03
2022-09-15T14:33:37.927Z,4.40
2022-09-15T14:36:14.448Z,1.95
2022-09-15T14:38:42.157Z,4.38
2022-09-15T14:41:19.944Z,2.83
2022-09-15T14:43:47.597Z,3.47
2022-09-15T14:46:19.023Z,7.63
2022-09-15T14:48:48.247Z,5.72
2022-09-15T14:51:22.406Z,13.63
2022-09-15T14:53:52.162Z,3.55
2022-09-15T14:56:22.749Z,1.60
2022-09-15T14:58:53.761Z,5.78
2022-09-15T15:01:24.433Z,3.40
2022-09-15T15:04:02.570Z,10.82
2022-09-15T15:06:38.618Z,3.40
2022-09-15T15:09:11.213Z,1.50
2022-09-15T15:11:44.045Z,21.80
2022-09-15T15:14:14.369Z,4.45
2022-09-15T15:16:55.486Z,3.35
2022-09-15T15:19:39.460Z,3.88
2022-09-15T15:22:16.516Z,1.25
2022-09-15T15:24:47.663Z,3.05
2022-09-15T15:27:40.681Z,2.78
2022-09-15T15:30:33.775Z,2.50
2022-09-15T15:33:02.899Z,1.13
2022-09-15T15:35:33.586Z,1.45
2022-09-15T15:38:04.593Z,3.92
2022-09-15T15:40:37.970Z,1.83
2022-09-15T15:43:08.337Z,2.38
2022-09-15T15:45:48.397Z,2.67
2022-09-15T15:48:18.398Z,1.92
2022-09-15T15:50:47.830Z,1.63
2022-09-15T15:53:15.458Z,1.10
2022-09-15T15:55:44.557Z,1.98
2022-09-15T15:58:13.499Z,1.08
2022-09-15T16:00:45.154Z,1.02
2022-09-15T16:03:19.285Z,1.33
2022-09-15T16:05:51.249Z,0.95
2022-09-15T16:08:25.541Z,1.73
2022-09-15T16:10:56.248Z,1.05
2022-09-15T16:13:27.654Z,2.58
2022-09-15T16:15:56.978Z,3.08
2022-09-15T16:18:29.271Z,0.60
2022-09-15T16:20:58.360Z,1.15
2022-09-15T16:23:26.312Z,2.72
2022-09-15T16:25:56.626Z,1.90
2022-09-15T16:28:24.665Z,2.42
2022-09-15T16:30:52.351Z,2.85
2022-09-15T16:33:20.956Z,1.35
2022-09-15T16:35:51.315Z,0.85
2022-09-15T16:38:21.227Z,2.40
2022-09-15T16:40:49.499Z,1.63
2022-09-15T16:43:19.268Z,1.00
2022-09-15T16:45:46.918Z,0.82
2022-09-15T16:48:14.887Z,0.75
2022-09-15T16:50:56.012Z,1.80
2022-09-15T16:53:32.662Z,1.95
2022-09-15T16:56:00.495Z,0.85
2022-09-15T16:58:28.637Z,2.58
2022-09-15T17:00:56.723Z,2.35
2022-09-15T17:03:25.986Z,1.20
2022-09-15T17:05:54.981Z,1.25
2022-09-15T17:08:27.057Z,1.92
2022-09-15T17:10:57.662Z,1.80
2022-09-15T17:13:30.118Z,3.63
2022-09-15T17:15:58.881Z,2.28
2022-09-15T17:18:26.938Z,0.90
2022-09-15T17:20:54.836Z,2.38
2022-09-15T17:23:24.392Z,2.85
2022-09-15T17:25:53.303Z,1.75
2022-09-15T17:28:25.536Z,2.10
2022-09-15T17:30:58.262Z,3.13
2022-09-15T17:33:26.923Z,2.35
2022-09-15T17:35:54.899Z,3.10
2022-09-15T17:38:22.901Z,3.55
2022-09-15T17:40:51.689Z,2.20
2022-09-15T17:43:20.969Z,6.35
2022-09-15T17:45:51.759Z,4.20
2022-09-15T17:48:19.731Z,10.35
2022-09-15T17:50:48.878Z,8.48
2022-09-15T17:53:18.850Z,5.20
2022-09-15T17:55:46.461Z,6.65
2022-09-15T17:58:14.362Z,3.97
2022-09-15T18:00:48.036Z,4.55
2022-09-15T18:03:22.901Z,4.13
2022-09-15T18:05:51.470Z,3.35
2022-09-15T18:08:19.276Z,3.38
2022-09-15T18:10:47.414Z,2.53
2022-09-15T18:13:17.516Z,3.92
2022-09-15T18:15:48.968Z,3.15
2022-09-15T18:18:22.736Z,2.58
2022-09-15T18:20:51.522Z,2.25
2022-09-15T18:23:20.923Z,1.60
2022-09-15T18:25:49.129Z,1.95
2022-09-15T18:28:17.620Z,3.35
2022-09-15T18:30:47.508Z,3.38
2022-09-15T18:33:16.939Z,3.88
2022-09-15T18:35:46.412Z,3.53
2022-09-15T18:38:17.033Z,3.50
2022-09-15T18:40:46.670Z,1.10
2022-09-15T18:43:14.325Z,5.32
2022-09-15T18:45:42.586Z,2.05
2022-09-15T18:48:12.852Z,3.58
2022-09-15T18:50:41.573Z,5.05
2022-09-15T18:53:11.478Z,2.58
2022-09-15T18:55:41.750Z,1.92
2022-09-15T18:58:09.707Z,3.78
2022-09-15T19:00:37.789Z,2.95
2022-09-15T19:03:09.467Z,4.18
2022-09-15T19:05:37.615Z,2.78
2022-09-15T19:08:05.513Z,4.55
2022-09-15T19:10:34.718Z,1.65
2022-09-15T19:13:02.363Z,2.70
2022-09-15T19:15:33.710Z,1.33
2022-09-15T19:18:02.008Z,2.72
2022-09-15T19:20:30.016Z,4.25
2022-09-15T19:22:58.151Z,9.52
2022-09-15T19:25:25.882Z,3.80
2022-09-15T19:27:55.003Z,2.88
2022-09-15T19:30:22.587Z,4.00
2022-09-15T19:32:50.189Z,3.25
2022-09-15T19:35:17.953Z,3.42
2022-09-15T19:37:45.952Z,2.88
2022-09-15T19:40:15.833Z,3.47
2022-09-15T19:42:45.256Z,2.67
2022-09-15T19:45:14.812Z,1.77
2022-09-15T19:47:42.899Z,4.38
2022-09-15T19:50:12.741Z,5.43
2022-09-15T19:52:40.590Z,2.78
2022-09-15T19:55:09.649Z,5.60
2022-09-15T19:57:39.879Z,5.75
2022-09-15T20:00:09.438Z,2.08
2022-09-15T20:02:39.128Z,3.40
2022-09-15T20:05:07.894Z,2.30
2022-09-15T20:07:35.671Z,4.47
2022-09-15T20:10:03.382Z,6.75
2022-09-15T20:12:34.611Z,2.15
2022-09-15T20:15:02.156Z,3.03
2022-09-15T20:17:29.753Z,3.00
2022-09-15T20:19:59.409Z,2.05
2022-09-15T20:22:27.505Z,4.05
2022-09-15T20:24:56.094Z,1.98
2022-09-15T20:27:23.831Z,3.75
2022-09-15T20:29:51.597Z,3.00
2022-09-15T20:32:22.751Z,1.70
2022-09-15T20:34:52.967Z,1.65
2022-09-15T20:37:23.015Z,2.50
2022-09-15T20:39:51.831Z,1.63
2022-09-15T20:42:19.674Z,4.00
2022-09-15T20:44:47.207Z,4.57
2022-09-15T20:47:14.797Z,0.95
2022-09-15T20:49:42.530Z,3.08
2022-09-15T20:52:10.178Z,2.58
2022-09-15T20:54:39.089Z,1.88
2022-09-15T20:57:06.726Z,2.35
2022-09-15T20:59:34.321Z,2.15
2022-09-15T21:02:04.215Z,2.75
2022-09-15T21:04:32.643Z,1.50
2022-09-15T21:07:00.871Z,2.47
2022-09-15T21:09:28.498Z,2.08
2022-09-15T21:11:57.550Z,1.02
2022-09-15T21:14:25.118Z,2.50
2022-09-15T21:16:52.824Z,2.22
2022-09-15T21:19:20.525Z,3.90
2022-09-15T21:21:48.162Z,1.40
2022-09-15T21:24:15.844Z,1.50
2022-09-15T21:26:57.543Z,2.20
2022-09-15T21:29:27.571Z,1.75
2022-09-15T21:31:56.224Z,3.30
2022-09-15T21:34:25.199Z,2.60
2022-09-15T21:36:53.718Z,4.10
2022-09-15T21:39:21.321Z,2.63
2022-09-15T21:41:49.200Z,1.67
2022-09-15T21:44:17.177Z,3.53
2022-09-15T21:46:46.938Z,3.58
2022-09-15T21:49:14.891Z,2.33
2022-09-15T21:51:42.501Z,3.92
2022-09-15T21:54:10.320Z,3.60
2022-09-15T21:56:38.092Z,2.97
2022-09-15T21:59:05.941Z,5.93
2022-09-15T22:01:34.333Z,3.72
2022-09-15T22:04:05.883Z,6.80
2022-09-15T22:06:34.978Z,4.32
2022-09-15T22:09:05.109Z,2.38
2022-09-15T22:11:33.691Z,4.93
2022-09-15T22:14:02.892Z,2.25
2022-09-15T22:16:31.022Z,4.28
2022-09-15T22:18:58.906Z,3.65
2022-09-15T22:21:29.269Z,4.43
2022-09-15T22:23:58.972Z,2.45
2022-09-15T22:26:28.763Z,4.72
2022-09-15T22:28:56.906Z,5.53
2022-09-15T22:31:25.539Z,6.10
2022-09-15T22:33:53.647Z,3.60
2022-09-15T22:36:27.951Z,3.53
2022-09-15T22:39:03.518Z,4.03
2022-09-15T22:41:32.351Z,5.15
2022-09-15T22:43:59.953Z,2.67
2022-09-15T22:46:27.591Z,5.82
2022-09-15T22:48:55.285Z,3.83
2022-09-15T22:51:22.997Z,4.07
2022-09-15T22:53:53.952Z,2.55
2022-09-15T22:56:23.221Z,5.50
2022-09-15T22:58:50.967Z,2.75
2022-09-15T23:01:20.607Z,4.00
2022-09-15T23:03:50.881Z,7.00
2022-09-15T23:06:18.645Z,6.85
2022-09-15T23:08:50.936Z,3.83
2022-09-15T23:11:18.740Z,5.53
2022-09-15T23:13:47.904Z,4.00
2022-09-15T23:16:15.881Z,6.78
2022-09-15T23:18:43.835Z,4.05
2022-09-15T23:21:12.824Z,7.70
2022-09-15T23:23:43.099Z,4.85
2022-09-15T23:26:12.829Z,4.68
2022-09-15T23:28:40.706Z,4.63
2022-09-15T23:31:11.858Z,9.07
2022-09-15T23:33:40.202Z,4.45
2022-09-15T23:36:10.631Z,2.88
2022-09-15T23:38:39.544Z,4.70
2022-09-15T23:41:08.093Z,10.43
2022-09-15T23:43:36.249Z,9.30
2022-09-15T23:46:04.848Z,1.98
2022-09-15T23:48:33.795Z,4.25
2022-09-15T23:51:01.949Z,4.28
2022-09-15T23:53:29.991Z,1.75
2022-09-15T23:55:58.136Z,5.82
2022-09-15T23:58:29.179Z,4.35
